Time;durP1;ratioP1;P1;durP2;ratioP2;P2;SDS_P1;SDS_P2;PMS_P1;PMS_P2;Temp;Humidity;BMP_temperature;BMP_pressure;BME280_temperature;BME280_humidity;BME280_pressure;Samples;Min_cycle;Max_cycle;Signal;HPM_P1;HPM_P2
2023/01/24 00:00:43;;;;;;;;;;;3.40;1.00;;;;;;5036633;28;19995;-76
2023/01/24 00:03:12;;;;;;;;;;;3.40;1.00;;;;;;5035872;28;19992;-75
2023/01/24 00:05:41;;;;;;;;;;;3.40;1.00;;;;;;5027684;28;19913;-75
2023/01/24 00:08:13;;;;;;;;;;;3.30;1.00;;;;;;5036674;28;19996;-77
2023/01/24 00:11:04;;;;;;;;;;;3.30;1.00;;;;;;5036004;28;19913;-75
2023/01/24 00:13:52;;;;;;;;;;;3.30;1.00;;;;;;5035852;28;19920;-75
2023/01/24 00:16:22;;;;;;;;;;;3.20;1.00;;;;;;5035709;28;19917;-75
2023/01/24 00:18:52;;;;;;;;;;;3.10;1.00;;;;;;5035728;28;20054;-75
2023/01/24 00:21:21;;;;;;;;;;;3.10;1.00;;;;;;5036101;28;19914;-76
2023/01/24 00:23:58;;;;;;;;;;;3.10;1.00;;;;;;5028166;28;19952;-75
2023/01/24 00:26:34;;;;;;;;;;;3.00;1.00;;;;;;5035866;28;19909;-75
2023/01/24 00:29:04;;;;;;;;;;;3.00;1.00;;;;;;5033287;28;20451;-75
2023/01/24 00:31:52;;;;;;;;;;;3.00;1.00;;;;;;5026369;28;19920;-75
2023/01/24 00:34:22;;;;;;;;;;;3.00;1.00;;;;;;5020305;28;19909;-75
2023/01/24 00:37:04;;;;;;;;;;;3.00;1.00;;;;;;5016253;28;20384;-82
2023/01/24 00:39:40;;;;;;;;;;;3.00;1.00;;;;;;5034441;28;19917;-75
2023/01/24 00:42:10;;;;;;;;;;;3.10;1.00;;;;;;5035257;28;19909;-75
2023/01/24 00:44:46;;;;;;;;;;;3.20;1.00;;;;;;5035232;28;19948;-76
2023/01/24 00:47:11;;;;;;;;;;;3.20;1.00;;;;;;5030160;28;19909;-74
2023/01/24 00:49:37;;;;;;;;;;;3.20;1.00;;;;;;5035458;28;20403;-75
2023/01/24 00:52:04;;;;;;;;;;;3.20;1.00;;;;;;5035931;28;20004;-82
2023/01/24 00:55:04;;;;;;;;;;;3.30;1.00;;;;;;5036117;28;19909;-85
2023/01/24 00:58:05;;;;;;;;;;;3.20;1.00;;;;;;5035748;28;19963;-87
2023/01/24 01:00:36;;;;;;;;;;;3.20;1.00;;;;;;5028214;28;20311;-86
2023/01/24 01:03:12;;;;;;;;;;;3.20;1.00;;;;;;5017192;28;20272;-87
2023/01/24 01:08:40;;;;;;;;;;;3.20;1.00;;;;;;5015562;28;19963;-75
2023/01/24 01:11:10;;;;;;;;;;;3.20;1.00;;;;;;5030476;28;19980;-75
2023/01/24 01:13:49;;;;;;;;;;;3.20;1.00;;;;;;5017119;28;19916;-75
2023/01/24 01:16:17;;;;;;;;;;;3.10;1.00;;;;;;5034630;28;19913;-75
2023/01/24 01:18:46;;;;;;;;;;;3.00;1.00;;;;;;5034856;28;19909;-75
2023/01/24 01:21:17;;;;;;;;;;;2.90;1.00;;;;;;5030710;28;20394;-75
2023/01/24 01:23:43;;;;;;;;;;;2.80;1.00;;;;;;5031016;28;19961;-87
2023/01/24 01:26:14;;;;;;;;;;;2.60;1.00;;;;;;5020569;28;19944;-87
2023/01/24 01:32:04;;;;;;;;;;;2.40;1.00;;;;;;5026246;28;20549;-86
2023/01/24 01:38:04;;;;;;;;;;;2.20;1.00;;;;;;5031333;28;19963;-86
2023/01/24 01:43:32;;;;;;;;;;;2.10;1.00;;;;;;5035116;28;19932;-86
2023/01/24 01:46:24;;;;;;;;;;;2.10;1.00;;;;;;5035049;28;20417;-87
2023/01/24 01:48:54;;;;;;;;;;;2.00;1.00;;;;;;5031481;28;19920;-87
2023/01/24 01:51:37;;;;;;;;;;;2.10;1.00;;;;;;5035089;28;19968;-87
2023/01/24 01:54:06;;;;;;;;;;;2.00;1.00;;;;;;5034887;28;20372;-75
2023/01/24 01:56:36;;;;;;;;;;;2.00;1.00;;;;;;5033891;28;19916;-75
2023/01/24 01:59:06;;;;;;;;;;;2.00;1.00;;;;;;5034081;28;19909;-75
2023/01/24 02:01:34;;;;;;;;;;;2.00;1.00;;;;;;5034249;28;19909;-75
2023/01/24 02:04:22;;;;;;;;;;;2.00;1.00;;;;;;5023975;28;19910;-76
2023/01/24 02:06:56;;;;;;;;;;;2.00;1.00;;;;;;5033949;28;19909;-75
2023/01/24 02:09:38;;;;;;;;;;;1.90;1.00;;;;;;5030652;28;19933;-87
2023/01/24 02:18:34;;;;;;;;;;;2.00;1.00;;;;;;5015131;28;19917;-86
2023/01/24 02:21:07;;;;;;;;;;;2.00;1.00;;;;;;5015190;28;20012;-87
2023/01/24 02:23:38;;;;;;;;;;;2.00;1.00;;;;;;5027115;28;19917;-75
2023/01/24 02:26:17;;;;;;;;;;;2.00;1.00;;;;;;5033946;28;20353;-75
2023/01/24 02:29:09;;;;;;;;;;;2.00;1.00;;;;;;5032703;28;19932;-74
2023/01/24 02:31:53;;;;;;;;;;;2.00;1.00;;;;;;4951844;29;19995;-75
2023/01/24 02:34:22;;;;;;;;;;;1.90;1.00;;;;;;4943476;29;19985;-76
2023/01/24 02:36:55;;;;;;;;;;;1.80;1.00;;;;;;4953408;29;19914;-75
2023/01/24 02:39:24;;;;;;;;;;;1.80;1.00;;;;;;4954288;29;19919;-87
2023/01/24 02:42:07;;;;;;;;;;;1.70;1.00;;;;;;4950981;29;19968;-87
2023/01/24 02:44:59;;;;;;;;;;;1.70;1.00;;;;;;4954456;29;19965;-86
2023/01/24 02:53:29;;;;;;;;;;;1.70;1.00;;;;;;4954045;29;20437;-87
2023/01/24 02:53:34;;;;;;;;;;;1.70;1.00;;;;;;4954507;29;19950;-87
2023/01/24 03:02:04;;;;;;;;;;;1.70;1.00;;;;;;4954481;29;19949;-87
2023/01/24 03:05:04;;;;;;;;;;;1.80;1.00;;;;;;4954364;29;20006;-87
2023/01/24 03:07:43;;;;;;;;;;;1.80;1.00;;;;;;4954938;28;19958;-87
2023/01/24 03:10:11;;;;;;;;;;;1.90;1.00;;;;;;5014194;28;19918;-75
2023/01/24 03:35:04;;;;;;;;;;;2.70;1.00;;;;;;5035464;28;19971;-75
2023/01/24 03:40:35;;;;;;;;;;;2.80;1.00;;;;;;5026116;28;19928;-87
2023/01/24 03:43:04;;;;;;;;;;;2.90;1.00;;;;;;5037527;28;20249;-87
2023/01/24 03:46:04;;;;;;;;;;;2.90;1.00;;;;;;5037515;28;19917;-87
2023/01/24 03:48:36;;;;;;;;;;;3.00;1.00;;;;;;5026869;28;19909;-87
2023/01/24 03:53:55;;;;;;;;;;;3.00;1.00;;;;;;5019962;28;20311;-76
2023/01/24 03:56:22;;;;;;;;;;;3.10;1.00;;;;;;5023091;28;19909;-76
2023/01/24 03:58:48;;;;;;;;;;;3.10;1.00;;;;;;5036167;28;20003;-75
2023/01/24 04:01:13;;;;;;;;;;;3.10;1.00;;;;;;5022438;28;20004;-76
2023/01/24 04:03:39;;;;;;;;;;;3.10;1.00;;;;;;5032081;28;20249;-76
2023/01/24 04:06:05;;;;;;;;;;;3.10;1.00;;;;;;5036113;28;19916;-75
2023/01/24 04:08:34;;;;;;;;;;;3.20;1.00;;;;;;5036114;28;19956;-75
2023/01/24 04:11:00;;;;;;;;;;;3.30;1.00;;;;;;5036210;28;19913;-76
2023/01/24 04:13:25;;;;;;;;;;;3.30;1.00;;;;;;5035957;28;19979;-76
2023/01/24 04:15:52;;;;;;;;;;;3.30;1.00;;;;;;5031825;28;19920;-76
2023/01/24 04:18:18;;;;;;;;;;;3.30;1.00;;;;;;5029659;28;19971;-75
2023/01/24 04:20:46;;;;;;;;;;;3.40;1.00;;;;;;5018243;28;19913;-75
2023/01/24 04:23:16;;;;;;;;;;;3.40;1.00;;;;;;5035628;28;19956;-75
2023/01/24 04:25:54;;;;;;;;;;;3.40;1.00;;;;;;5036024;28;19917;-75
2023/01/24 04:28:22;;;;;;;;;;;3.40;1.00;;;;;;5035747;28;19917;-75
2023/01/24 04:30:56;;;;;;;;;;;3.40;1.00;;;;;;5017918;28;20039;-75
2023/01/24 04:33:22;;;;;;;;;;;3.50;1.00;;;;;;5035844;28;20316;-76
2023/01/24 04:35:48;;;;;;;;;;;3.50;1.00;;;;;;5034877;28;19909;-77
2023/01/24 04:41:22;;;;;;;;;;;3.50;1.00;;;;;;5036599;28;20025;-87
2023/01/24 04:44:10;;;;;;;;;;;3.50;1.00;;;;;;5035716;28;19919;-87
2023/01/24 04:49:52;;;;;;;;;;;3.50;1.00;;;;;;5035657;28;19920;-88
2023/01/24 04:55:34;;;;;;;;;;;3.40;1.00;;;;;;5033664;28;19917;-84
2023/01/24 05:01:03;;;;;;;;;;;3.40;1.00;;;;;;5034712;28;19959;-84
2023/01/24 05:03:40;;;;;;;;;;;3.40;1.00;;;;;;5035505;28;20303;-84
2023/01/24 05:06:10;;;;;;;;;;;3.50;1.00;;;;;;5035507;28;19909;-84
2023/01/24 05:08:40;;;;;;;;;;;3.40;1.00;;;;;;5030413;28;19909;-84
2023/01/24 05:11:16;;;;;;;;;;;3.40;1.00;;;;;;5018050;28;19917;-84
2023/01/24 05:13:46;;;;;;;;;;;3.40;1.00;;;;;;5035582;28;19967;-84
2023/01/24 05:16:17;;;;;;;;;;;3.50;1.00;;;;;;5035319;28;19909;-85
2023/01/24 05:18:46;;;;;;;;;;;3.50;1.00;;;;;;5015166;28;20003;-84
2023/01/24 05:21:34;;;;;;;;;;;3.50;1.00;;;;;;5017914;28;20314;-84
2023/01/24 05:27:03;;;;;;;;;;;3.60;1.00;;;;;;5035306;28;20383;-85
2023/01/24 05:29:40;;;;;;;;;;;3.50;1.00;;;;;;5017312;28;22521;-85
2023/01/24 05:32:16;;;;;;;;;;;3.50;1.00;;;;;;5017146;28;19916;-85
2023/01/24 05:34:52;;;;;;;;;;;3.60;1.00;;;;;;5017011;28;19944;-85
2023/01/24 05:37:40;;;;;;;;;;;3.60;1.00;;;;;;5017082;28;19917;-85
2023/01/24 05:43:09;;;;;;;;;;;3.70;1.00;;;;;;5034718;28;20560;-89
2023/01/24 05:45:56;;;;;;;;;;;3.70;1.00;;;;;;5035015;28;19909;-89
2023/01/24 05:54:28;;;;;;;;;;;3.70;1.00;;;;;;5034480;28;20000;-85
2023/01/24 05:56:58;;;;;;;;;;;3.70;1.00;;;;;;5034936;28;19949;-84
2023/01/24 05:59:24;;;;;;;;;;;3.70;1.00;;;;;;5015060;28;19909;-84
2023/01/24 06:02:22;;;;;;;;;;;3.70;1.00;;;;;;5016961;28;19910;-85
2023/01/24 06:07:50;;;;;;;;;;;3.70;1.00;;;;;;5034329;28;19952;-84
2023/01/24 06:10:16;;;;;;;;;;;3.70;1.00;;;;;;5034696;28;19957;-85
2023/01/24 06:15:59;;;;;;;;;;;3.70;1.00;;;;;;5034062;28;19963;-84
2023/01/24 06:18:28;;;;;;;;;;;3.80;1.00;;;;;;5033632;28;20407;-84
2023/01/24 06:24:16;;;;;;;;;;;3.70;1.00;;;;;;5027112;28;20010;-84
2023/01/24 06:33:16;;;;;;;;;;;3.80;1.00;;;;;;5034042;28;19990;-92
2023/01/24 06:36:06;;;;;;;;;;;3.80;1.00;;;;;;4997073;28;19916;-87
2023/01/24 06:38:32;;;;;;;;;;;3.80;1.00;;;;;;5033743;28;19909;-84
2023/01/24 06:44:04;;;;;;;;;;;3.90;1.00;;;;;;5033968;28;19924;-88
2023/01/24 06:46:34;;;;;;;;;;;3.90;1.00;;;;;;5016241;28;19917;-82
2023/01/24 06:49:22;;;;;;;;;;;3.90;1.00;;;;;;5016576;28;20509;-89
2023/01/24 06:54:52;;;;;;;;;;;3.90;1.00;;;;;;5033195;28;19931;-81
2023/01/24 06:57:22;;;;;;;;;;;3.90;1.00;;;;;;5015998;28;19909;-77
2023/01/24 06:59:48;;;;;;;;;;;3.90;1.00;;;;;;5024897;28;19909;-77
2023/01/24 07:02:16;;;;;;;;;;;3.90;1.00;;;;;;5037215;28;19964;-76
2023/01/24 07:04:42;;;;;;;;;;;3.90;1.00;;;;;;4999703;28;19909;-76
2023/01/24 07:07:34;;;;;;;;;;;4.00;1.00;;;;;;5032616;28;19936;-77
2023/01/24 07:10:05;;;;;;;;;;;4.00;1.00;;;;;;5037610;28;19909;-77
2023/01/24 07:12:31;;;;;;;;;;;4.00;1.00;;;;;;5037614;28;19909;-77
2023/01/24 07:15:04;;;;;;;;;;;4.00;1.00;;;;;;5037261;28;20375;-77
2023/01/24 07:17:30;;;;;;;;;;;4.00;1.00;;;;;;5019476;28;20430;-77
2023/01/24 07:20:28;;;;;;;;;;;4.00;1.00;;;;;;5037186;28;19924;-77
2023/01/24 07:22:59;;;;;;;;;;;4.00;1.00;;;;;;5019160;28;19913;-77
2023/01/24 07:25:26;;;;;;;;;;;4.10;1.00;;;;;;5032108;28;19909;-77
2023/01/24 07:28:10;;;;;;;;;;;4.10;1.00;;;;;;5037479;28;19913;-77
2023/01/24 07:30:40;;;;;;;;;;;4.10;1.00;;;;;;5016149;28;19914;-77
2023/01/24 07:33:40;;;;;;;;;;;4.10;1.00;;;;;;5032203;28;19913;-76
2023/01/24 07:36:34;;;;;;;;;;;4.10;1.00;;;;;;5036572;28;19984;-77
2023/01/24 07:39:04;;;;;;;;;;;4.10;1.00;;;;;;5027451;28;19913;-77
2023/01/24 07:44:59;;;;;;;;;;;4.10;1.00;;;;;;5036819;28;20020;-89
2023/01/24 07:47:29;;;;;;;;;;;4.10;1.00;;;;;;5037402;28;19916;-89
2023/01/24 07:50:04;;;;;;;;;;;4.10;1.00;;;;;;5037083;28;19994;-89
2023/01/24 07:52:49;;;;;;;;;;;4.10;1.00;;;;;;5031660;28;19924;-89
2023/01/24 07:58:40;;;;;;;;;;;4.20;1.00;;;;;;5037072;28;19955;-89
2023/01/24 08:01:15;;;;;;;;;;;4.20;1.00;;;;;;5017244;28;19956;-89
2023/01/24 08:03:46;;;;;;;;;;;4.20;1.00;;;;;;5033796;28;19909;-88
2023/01/24 08:06:17;;;;;;;;;;;4.30;1.00;;;;;;5036710;28;19910;-89
2023/01/24 08:08:46;;;;;;;;;;;4.30;1.00;;;;;;5019217;28;19963;-88
2023/01/24 08:11:17;;;;;;;;;;;4.30;1.00;;;;;;5031820;28;19913;-89
2023/01/24 08:13:46;;;;;;;;;;;4.40;1.00;;;;;;5035889;28;19916;-88
2023/01/24 08:19:15;;;;;;;;;;;4.40;1.00;;;;;;5027613;28;19916;-88
2023/01/24 08:27:53;;;;;;;;;;;4.50;1.00;;;;;;5030868;28;19963;-76
2023/01/24 08:30:19;;;;;;;;;;;4.60;1.00;;;;;;5033681;28;19960;-76
2023/01/24 08:33:17;;;;;;;;;;;4.60;1.00;;;;;;5031945;28;19944;-76
2023/01/24 08:35:52;;;;;;;;;;;4.60;1.00;;;;;;5026680;28;19910;-76
2023/01/24 08:38:18;;;;;;;;;;;4.70;1.00;;;;;;5041511;28;19909;-76
2023/01/24 08:40:44;;;;;;;;;;;4.70;1.00;;;;;;5041881;28;19967;-76
2023/01/24 08:55:22;;;;;;;;;;;4.90;1.00;;;;;;5035731;28;19916;-89
2023/01/24 08:57:58;;;;;;;;;;;4.80;1.00;;;;;;5036011;28;19916;-76
2023/01/24 09:00:28;;;;;;;;;;;4.80;1.00;;;;;;5035299;28;20024;-76
2023/01/24 09:03:11;;;;;;;;;;;4.80;1.00;;;;;;5010204;28;19910;-76
2023/01/24 09:05:40;;;;;;;;;;;4.90;1.00;;;;;;5034579;28;19909;-76
2023/01/24 09:08:10;;;;;;;;;;;4.90;1.00;;;;;;5017532;28;19952;-76
2023/01/24 09:10:36;;;;;;;;;;;4.90;1.00;;;;;;5030006;28;20349;-76
2023/01/24 09:19:16;;;;;;;;;;;5.10;1.00;;;;;;5025861;28;19954;-89
2023/01/24 09:25:22;;;;;;;;;;;5.00;1.00;;;;;;5035593;28;20009;-89
2023/01/24 09:27:58;;;;;;;;;;;5.10;1.00;;;;;;5035842;28;20348;-89
2023/01/24 09:33:27;;;;;;;;;;;5.20;1.00;;;;;;5035020;28;19916;-88
2023/01/24 09:38:56;;;;;;;;;;;5.10;1.00;;;;;;5035070;28;19974;-88
2023/01/24 09:41:35;;;;;;;;;;;5.10;1.00;;;;;;5007963;28;19960;-88
2023/01/24 09:44:08;;;;;;;;;;;5.10;1.00;;;;;;5016841;28;19910;-76
2023/01/24 09:46:49;;;;;;;;;;;5.10;1.00;;;;;;5028358;28;19909;-76
2023/01/24 09:49:40;;;;;;;;;;;5.10;1.00;;;;;;5034066;28;20418;-76
2023/01/24 09:52:25;;;;;;;;;;;5.00;1.00;;;;;;5034374;28;19967;-76
2023/01/24 09:54:57;;;;;;;;;;;5.10;1.00;;;;;;5029900;28;20379;-76
2023/01/24 09:57:27;;;;;;;;;;;5.10;1.00;;;;;;5034104;28;19909;-79
2023/01/24 10:00:13;;;;;;;;;;;5.10;1.00;;;;;;5034919;28;19909;-89
2023/01/24 10:08:59;;;;;;;;;;;5.20;1.00;;;;;;5032938;28;19916;-88
2023/01/24 10:11:24;;;;;;;;;;;5.20;1.00;;;;;;5016933;28;20284;-89
2023/01/24 10:14:05;;;;;;;;;;;5.20;1.00;;;;;;5017071;28;19909;-76
2023/01/24 10:16:50;;;;;;;;;;;5.20;1.00;;;;;;5016250;28;19909;-76
2023/01/24 10:19:28;;;;;;;;;;;5.20;1.00;;;;;;5034040;28;19909;-76
2023/01/24 10:22:24;;;;;;;;;;;5.30;1.00;;;;;;5023114;28;20435;-77
2023/01/24 10:25:02;;;;;;;;;;;5.30;1.00;;;;;;4951491;29;20009;-77
2023/01/24 10:27:31;;;;;;;;;;;5.30;1.00;;;;;;4953526;29;19938;-76
2023/01/24 10:30:12;;;;;;;;;;;5.20;1.00;;;;;;4937787;29;19914;-76
2023/01/24 10:32:43;;;;;;;;;;;5.20;1.00;;;;;;4937250;28;19915;-76
2023/01/24 10:35:13;;;;;;;;;;;5.20;1.00;;;;;;4956496;29;19953;-76
2023/01/24 10:37:50;;;;;;;;;;;5.20;1.00;;;;;;4957565;29;19961;-76
2023/01/24 10:40:24;;;;;;;;;;;5.20;1.00;;;;;;4957413;29;19911;-77
2023/01/24 10:42:50;;;;;;;;;;;5.10;1.00;;;;;;4957663;29;20366;-87
2023/01/24 10:45:21;;;;;;;;;;;5.10;1.00;;;;;;4957772;29;19911;-76
2023/01/24 10:47:50;;;;;;;;;;;5.10;1.00;;;;;;4957462;29;19933;-77
2023/01/24 10:50:25;;;;;;;;;;;5.20;1.00;;;;;;4957438;29;19924;-77
2023/01/24 10:52:50;;;;;;;;;;;5.20;1.00;;;;;;4957678;29;19910;-76
2023/01/24 10:55:36;;;;;;;;;;;5.20;1.00;;;;;;4957578;29;19941;-76
2023/01/24 10:58:22;;;;;;;;;;;5.20;1.00;;;;;;4957222;29;19934;-79
2023/01/24 11:01:13;;;;;;;;;;;5.20;1.00;;;;;;4976884;28;19909;-76
2023/01/24 11:03:40;;;;;;;;;;;5.20;1.00;;;;;;4934071;29;20436;-76
2023/01/24 11:06:31;;;;;;;;;;;5.20;1.00;;;;;;4946159;29;19911;-76
2023/01/24 11:09:10;;;;;;;;;;;5.30;1.00;;;;;;4944583;29;20306;-76
2023/01/24 11:11:46;;;;;;;;;;;5.40;1.00;;;;;;4957027;29;19915;-77
2023/01/24 11:20:47;;;;;;;;;;;5.40;1.00;;;;;;4957573;28;20282;-89
2023/01/24 11:29:34;;;;;;;;;;;5.40;1.00;;;;;;4956556;29;20357;-88
2023/01/24 11:32:22;;;;;;;;;;;5.40;1.00;;;;;;4956906;29;19915;-82
2023/01/24 11:35:24;;;;;;;;;;;5.50;1.00;;;;;;4957744;29;19910;-92
2023/01/24 11:38:22;;;;;;;;;;;5.50;1.00;;;;;;4948399;29;19925;-96
2023/01/24 11:47:16;;;;;;;;;;;5.40;1.00;;;;;;5037358;28;19916;-95
2023/01/24 11:55:59;;;;;;;;;;;5.50;1.00;;;;;;5036683;28;19924;-90
2023/01/24 12:02:04;;;;;;;;;;;5.60;1.00;;;;;;5036675;28;19932;-91
2023/01/24 12:13:58;;;;;;;;;;;5.30;1.00;;;;;;5036901;28;20395;-89
2023/01/24 12:19:48;;;;;;;;;;;5.30;1.00;;;;;;5036562;28;19936;-93
2023/01/24 12:22:19;;;;;;;;;;;5.30;1.00;;;;;;5019643;28;20393;-88
2023/01/24 12:34:24;;;;;;;;;;;5.40;1.00;;;;;;5036383;28;19977;-90
2023/01/24 12:40:16;;;;;;;;;;;5.30;1.00;;;;;;5035927;28;19932;-85
2023/01/24 12:46:16;;;;;;;;;;;5.40;1.00;;;;;;5016904;28;19948;-88
2023/01/24 12:48:55;;;;;;;;;;;5.50;1.00;;;;;;4999147;28;19920;-88
2023/01/24 12:51:24;;;;;;;;;;;5.50;1.00;;;;;;5012809;28;19917;-89
2023/01/24 12:59:56;;;;;;;;;;;5.50;1.00;;;;;;5022500;28;19967;-85
2023/01/24 13:02:46;;;;;;;;;;;5.60;1.00;;;;;;5017781;28;19909;-88
2023/01/24 13:08:26;;;;;;;;;;;5.50;1.00;;;;;;5034939;28;20004;-88
2023/01/24 13:14:16;;;;;;;;;;;5.50;1.00;;;;;;5032899;28;19947;-75
2023/01/24 13:20:04;;;;;;;;;;;5.50;1.00;;;;;;5035444;28;20376;-88
2023/01/24 13:22:58;;;;;;;;;;;5.40;1.00;;;;;;5017581;28;19918;-86
2023/01/24 13:28:52;;;;;;;;;;;5.40;1.00;;;;;;5035365;28;19916;-86
2023/01/24 13:31:43;;;;;;;;;;;5.40;1.00;;;;;;5017265;28;19913;-75
2023/01/24 13:34:15;;;;;;;;;;;5.40;1.00;;;;;;5023900;28;20327;-75
2023/01/24 13:36:45;;;;;;;;;;;5.30;1.00;;;;;;5028259;28;19913;-76
2023/01/24 13:39:35;;;;;;;;;;;5.30;1.00;;;;;;5034600;28;20391;-76
2023/01/24 13:42:03;;;;;;;;;;;5.30;1.00;;;;;;5034323;28;19916;-74
2023/01/24 13:44:33;;;;;;;;;;;5.30;1.00;;;;;;5028707;28;19916;-75
2023/01/24 13:46:59;;;;;;;;;;;5.30;1.00;;;;;;5034439;28;20377;-74
2023/01/24 13:49:27;;;;;;;;;;;5.30;1.00;;;;;;5034065;28;20434;-75
2023/01/24 13:52:24;;;;;;;;;;;5.30;1.00;;;;;;5015679;28;19917;-74
2023/01/24 13:54:50;;;;;;;;;;;5.30;1.00;;;;;;4999026;28;20288;-74
2023/01/24 13:57:19;;;;;;;;;;;5.30;1.00;;;;;;5033971;28;19909;-74
2023/01/24 14:00:13;;;;;;;;;;;5.30;1.00;;;;;;5033949;28;20008;-77
2023/01/24 14:02:47;;;;;;;;;;;5.30;1.00;;;;;;4945113;29;20314;-74
2023/01/24 14:05:28;;;;;;;;;;;5.30;1.00;;;;;;4944609;29;19941;-74
2023/01/24 14:08:00;;;;;;;;;;;5.40;1.00;;;;;;4947759;29;19915;-74
2023/01/24 14:10:33;;;;;;;;;;;5.40;1.00;;;;;;4953394;29;20478;-74
2023/01/24 14:13:10;;;;;;;;;;;5.30;1.00;;;;;;4953929;29;20278;-75
2023/01/24 14:15:41;;;;;;;;;;;5.30;1.00;;;;;;4953988;29;20498;-75
2023/01/24 14:18:25;;;;;;;;;;;5.30;1.00;;;;;;4940966;29;19934;-75
2023/01/24 14:20:52;;;;;;;;;;;5.30;1.00;;;;;;4953698;29;19915;-76
2023/01/24 14:23:20;;;;;;;;;;;5.30;1.00;;;;;;4953717;29;19925;-76
2023/01/24 14:26:05;;;;;;;;;;;5.30;1.00;;;;;;4950197;29;19919;-76
2023/01/24 14:28:40;;;;;;;;;;;5.20;1.00;;;;;;4945635;29;19911;-75
2023/01/24 14:31:23;;;;;;;;;;;5.20;1.00;;;;;;4934843;29;19958;-84
2023/01/24 14:37:07;;;;;;;;;;;5.20;1.00;;;;;;4954416;28;19917;-86
2023/01/24 14:39:34;;;;;;;;;;;5.20;1.00;;;;;;4987204;28;19909;-87
2023/01/24 14:42:17;;;;;;;;;;;5.20;1.00;;;;;;5031179;28;19917;-87
2023/01/24 14:45:16;;;;;;;;;;;5.20;1.00;;;;;;5034522;28;20012;-86
2023/01/24 14:47:48;;;;;;;;;;;5.10;1.00;;;;;;5015985;28;20004;-75
2023/01/24 14:50:33;;;;;;;;;;;5.10;1.00;;;;;;5015758;28;19917;-74
2023/01/24 14:53:37;;;;;;;;;;;5.10;1.00;;;;;;5033642;28;20383;-75
2023/01/24 14:56:13;;;;;;;;;;;5.10;1.00;;;;;;4953535;28;20013;-75
2023/01/24 14:58:58;;;;;;;;;;;5.10;1.00;;;;;;4948916;28;19915;-75
2023/01/24 15:11:05;;;;;;;;;;;4.90;1.00;;;;;;4953973;28;20022;-87
2023/01/24 15:13:56;;;;;;;;;;;4.90;1.00;;;;;;4941802;29;20024;-87
2023/01/24 15:16:28;;;;;;;;;;;4.90;1.00;;;;;;4950233;28;19910;-74
2023/01/24 15:18:54;;;;;;;;;;;4.90;1.00;;;;;;4953211;28;19949;-75
2023/01/24 15:21:40;;;;;;;;;;;4.90;1.00;;;;;;4948506;29;20005;-75
2023/01/24 15:24:16;;;;;;;;;;;4.90;1.00;;;;;;4955762;29;19956;-75
2023/01/24 15:26:47;;;;;;;;;;;4.90;1.00;;;;;;4947309;29;19911;-75
2023/01/24 15:29:32;;;;;;;;;;;4.90;1.00;;;;;;4951282;28;19913;-76
2023/01/24 15:38:10;;;;;;;;;;;4.80;1.00;;;;;;5037106;28;19917;-87
2023/01/24 15:41:13;;;;;;;;;;;4.70;1.00;;;;;;5036808;28;19957;-85
2023/01/24 15:49:28;;;;;;;;;;;4.70;1.00;;;;;;4955673;29;19981;-75
2023/01/24 15:52:01;;;;;;;;;;;4.60;1.00;;;;;;4955821;29;20409;-75
2023/01/24 15:54:41;;;;;;;;;;;4.60;1.00;;;;;;4955624;29;20282;-75
2023/01/24 15:57:18;;;;;;;;;;;4.60;1.00;;;;;;4955928;29;19914;-76
2023/01/24 15:59:54;;;;;;;;;;;4.60;1.00;;;;;;4955990;29;19911;-75
2023/01/24 16:05:52;;;;;;;;;;;4.60;1.00;;;;;;4955913;28;19942;-77
2023/01/24 16:08:29;;;;;;;;;;;4.60;1.00;;;;;;4936740;29;19961;-78
2023/01/24 16:11:04;;;;;;;;;;;4.60;1.00;;;;;;4955117;29;19915;-77
2023/01/24 16:13:58;;;;;;;;;;;4.60;1.00;;;;;;4955634;29;19914;-75
2023/01/24 16:16:28;;;;;;;;;;;4.50;1.00;;;;;;4956187;29;19970;-76
2023/01/24 16:18:59;;;;;;;;;;;4.50;1.00;;;;;;5035896;28;19949;-75
2023/01/24 16:21:34;;;;;;;;;;;4.40;1.00;;;;;;5035242;28;19956;-76
2023/01/24 16:24:11;;;;;;;;;;;4.50;1.00;;;;;;5035932;28;19928;-79
2023/01/24 16:27:00;;;;;;;;;;;4.50;1.00;;;;;;5018139;28;19949;-79
2023/01/24 16:29:28;;;;;;;;;;;4.50;1.00;;;;;;5035849;28;19962;-78
2023/01/24 16:32:14;;;;;;;;;;;4.50;1.00;;;;;;5034447;28;19913;-78
2023/01/24 16:34:40;;;;;;;;;;;4.50;1.00;;;;;;5031129;28;19913;-80
2023/01/24 16:37:11;;;;;;;;;;;4.50;1.00;;;;;;5035709;28;19920;-80
2023/01/24 16:39:47;;;;;;;;;;;4.50;1.00;;;;;;5035578;28;19909;-79
2023/01/24 16:42:17;;;;;;;;;;;4.50;1.00;;;;;;5034848;28;19935;-80
2023/01/24 16:44:56;;;;;;;;;;;4.50;1.00;;;;;;5029431;28;19936;-80
2023/01/24 16:47:23;;;;;;;;;;;4.50;1.00;;;;;;5035286;28;19914;-78
2023/01/24 16:49:52;;;;;;;;;;;4.50;1.00;;;;;;5035369;28;19909;-78
2023/01/24 16:52:24;;;;;;;;;;;4.50;1.00;;;;;;5017336;28;19913;-77
2023/01/24 16:55:05;;;;;;;;;;;4.50;1.00;;;;;;5028640;28;20466;-77
2023/01/24 16:57:35;;;;;;;;;;;4.50;1.00;;;;;;5030909;28;19913;-76
2023/01/24 17:00:12;;;;;;;;;;;4.40;1.00;;;;;;5035042;28;19920;-76
2023/01/24 17:02:41;;;;;;;;;;;4.50;1.00;;;;;;5035391;28;19908;-77
2023/01/24 17:05:07;;;;;;;;;;;4.40;1.00;;;;;;5035184;28;19959;-78
2023/01/24 17:07:52;;;;;;;;;;;4.40;1.00;;;;;;5034506;28;19916;-77
2023/01/24 17:10:23;;;;;;;;;;;4.40;1.00;;;;;;5034993;28;19917;-78
2023/01/24 17:13:06;;;;;;;;;;;4.40;1.00;;;;;;5034502;28;19948;-78
2023/01/24 17:15:35;;;;;;;;;;;4.40;1.00;;;;;;5034755;28;19952;-79
2023/01/24 17:18:05;;;;;;;;;;;4.40;1.00;;;;;;5017656;28;19916;-84
2023/01/24 17:20:31;;;;;;;;;;;4.40;1.00;;;;;;5034951;28;19924;-77
2023/01/24 17:22:59;;;;;;;;;;;4.30;1.00;;;;;;5034689;28;19956;-77
2023/01/24 17:25:25;;;;;;;;;;;4.30;1.00;;;;;;5034515;28;19915;-78
2023/01/24 17:28:04;;;;;;;;;;;4.30;1.00;;;;;;5016907;28;19913;-79
2023/01/24 17:30:30;;;;;;;;;;;4.40;1.00;;;;;;5025813;28;19920;-79
2023/01/24 17:33:05;;;;;;;;;;;4.40;1.00;;;;;;5034822;28;19909;-78
2023/01/24 17:35:37;;;;;;;;;;;4.40;1.00;;;;;;5034551;28;19913;-78
2023/01/24 17:38:04;;;;;;;;;;;4.50;1.00;;;;;;5034365;28;19909;-78
2023/01/24 17:40:30;;;;;;;;;;;4.50;1.00;;;;;;5028385;28;19924;-79
2023/01/24 17:43:04;;;;;;;;;;;4.50;1.00;;;;;;5033987;28;19909;-77
2023/01/24 17:45:35;;;;;;;;;;;4.60;1.00;;;;;;5034185;28;19921;-77
2023/01/24 17:48:22;;;;;;;;;;;4.60;1.00;;;;;;5016754;28;19939;-79
2023/01/24 17:50:52;;;;;;;;;;;4.60;1.00;;;;;;5016236;28;20009;-80
2023/01/24 17:53:18;;;;;;;;;;;4.60;1.00;;;;;;5016452;28;19909;-79
2023/01/24 17:55:44;;;;;;;;;;;4.60;1.00;;;;;;5034224;28;19909;-78
2023/01/24 17:58:11;;;;;;;;;;;4.60;1.00;;;;;;5033688;28;19996;-78
2023/01/24 18:00:37;;;;;;;;;;;4.60;1.00;;;;;;5028595;28;19916;-78
2023/01/24 18:03:03;;;;;;;;;;;4.50;1.00;;;;;;5034348;28;19996;-78
2023/01/24 18:05:35;;;;;;;;;;;4.50;1.00;;;;;;5016365;28;19909;-79
2023/01/24 18:08:17;;;;;;;;;;;4.50;1.00;;;;;;5033790;28;19932;-80
2023/01/24 18:10:46;;;;;;;;;;;4.50;1.00;;;;;;5028336;28;19940;-78
2023/01/24 18:13:23;;;;;;;;;;;4.50;1.00;;;;;;5033706;28;19917;-79
2023/01/24 18:16:22;;;;;;;;;;;4.50;1.00;;;;;;5033858;28;19936;-79
2023/01/24 18:19:04;;;;;;;;;;;4.50;1.00;;;;;;5034221;28;19909;-78
2023/01/24 18:21:30;;;;;;;;;;;4.50;1.00;;;;;;5034464;28;20371;-77
2023/01/24 18:23:59;;;;;;;;;;;4.50;1.00;;;;;;5034107;28;19999;-78
2023/01/24 18:26:46;;;;;;;;;;;4.50;1.00;;;;;;5033991;28;19959;-78
2023/01/24 18:29:17;;;;;;;;;;;4.40;1.00;;;;;;5014201;28;19913;-78
2023/01/24 18:31:47;;;;;;;;;;;4.50;1.00;;;;;;5033247;28;19913;-78
2023/01/24 18:34:16;;;;;;;;;;;4.50;1.00;;;;;;5033757;28;20276;-79
2023/01/24 18:36:42;;;;;;;;;;;4.50;1.00;;;;;;5033923;28;19916;-79
2023/01/24 18:39:11;;;;;;;;;;;4.40;1.00;;;;;;5033643;28;19991;-79
2023/01/24 18:41:53;;;;;;;;;;;4.50;1.00;;;;;;5033220;28;20008;-75
2023/01/24 18:44:18;;;;;;;;;;;4.50;1.00;;;;;;5028165;28;19971;-76
2023/01/24 18:46:46;;;;;;;;;;;4.50;1.00;;;;;;5033757;28;19945;-74
2023/01/24 18:49:12;;;;;;;;;;;4.50;1.00;;;;;;5015356;28;19914;-74
2023/01/24 18:51:38;;;;;;;;;;;4.50;1.00;;;;;;5033467;28;19924;-74
2023/01/24 18:54:06;;;;;;;;;;;4.50;1.00;;;;;;5033191;28;20468;-74
2023/01/24 18:56:35;;;;;;;;;;;4.50;1.00;;;;;;5037321;28;19913;-75
2023/01/24 18:59:11;;;;;;;;;;;4.50;1.00;;;;;;5037345;28;19978;-74
2023/01/24 19:01:40;;;;;;;;;;;4.50;1.00;;;;;;5031815;28;19964;-74
2023/01/24 19:04:06;;;;;;;;;;;4.50;1.00;;;;;;5029334;28;19909;-75
2023/01/24 19:06:35;;;;;;;;;;;4.50;1.00;;;;;;5037200;28;19979;-74
2023/01/24 19:09:06;;;;;;;;;;;4.50;1.00;;;;;;5037154;28;19910;-75
2023/01/24 19:11:33;;;;;;;;;;;4.50;1.00;;;;;;5032050;28;19924;-74
2023/01/24 19:14:05;;;;;;;;;;;4.50;1.00;;;;;;5037057;28;19913;-74
2023/01/24 19:16:35;;;;;;;;;;;4.50;1.00;;;;;;5031657;28;19937;-74
2023/01/24 19:19:02;;;;;;;;;;;4.60;1.00;;;;;;5037354;28;20318;-75
2023/01/24 19:21:30;;;;;;;;;;;4.60;1.00;;;;;;5037172;28;20028;-75
2023/01/24 19:23:59;;;;;;;;;;;4.60;1.00;;;;;;5030620;28;19914;-74
2023/01/24 19:26:25;;;;;;;;;;;4.60;1.00;;;;;;5025436;28;19916;-75
2023/01/24 19:28:57;;;;;;;;;;;4.70;1.00;;;;;;5036573;28;19987;-74
2023/01/24 19:31:23;;;;;;;;;;;4.60;1.00;;;;;;5036418;28;19917;-74
2023/01/24 19:33:53;;;;;;;;;;;4.60;1.00;;;;;;5027731;28;19963;-74
2023/01/24 19:36:29;;;;;;;;;;;4.60;1.00;;;;;;5032157;28;20000;-74
2023/01/24 19:39:00;;;;;;;;;;;4.60;1.00;;;;;;5036518;28;19909;-74
2023/01/24 19:41:29;;;;;;;;;;;4.60;1.00;;;;;;5023101;28;19910;-74
2023/01/24 19:44:05;;;;;;;;;;;4.60;1.00;;;;;;5012257;28;19913;-74